createdAt,value
2022-07-29T00:05:02.871Z,98636.57
2022-07-29T00:10:07.604Z,98639.47
2022-07-29T00:15:12.172Z,98639.52
2022-07-29T00:20:16.241Z,98637.58
2022-07-29T00:25:20.752Z,98634.73
2022-07-29T00:30:25.432Z,98628.56
2022-07-29T00:35:48.743Z,98627.95
2022-07-29T00:40:53.200Z,98622.17
2022-07-29T00:45:57.292Z,98620.63
2022-07-29T00:51:02.661Z,98614.98
2022-07-29T00:56:09.543Z,98614.89
2022-07-29T01:01:13.801Z,98611.66
2022-07-29T01:06:18.300Z,98606.71
2022-07-29T01:11:22.951Z,98608.55
2022-07-29T01:16:29.196Z,98607.53
2022-07-29T01:21:52.201Z,98599.77
2022-07-29T01:26:59.898Z,98595.94
2022-07-29T01:32:05.840Z,98592.00
2022-07-29T01:37:17.232Z,98590.81
2022-07-29T01:42:29.200Z,98595.39
2022-07-29T01:47:36.713Z,98591.23
2022-07-29T01:52:44.201Z,98587.27
2022-07-29T01:57:48.891Z,98587.67
2022-07-29T02:02:54.751Z,98585.24
2022-07-29T02:07:59.710Z,98580.94
2022-07-29T02:13:04.701Z,98575.52
2022-07-29T02:18:09.305Z,98569.55
2022-07-29T02:23:14.131Z,98572.23
2022-07-29T02:28:18.869Z,98573.14
2022-07-29T02:33:23.401Z,98562.27
2022-07-29T02:38:47.193Z,98559.31
2022-07-29T02:43:54.171Z,98563.75
2022-07-29T02:48:59.787Z,98561.19
2022-07-29T02:54:08.600Z,98558.12
2022-07-29T02:59:13.400Z,98556.09
2022-07-29T03:04:18.586Z,98555.66
2022-07-29T03:09:23.347Z,98567.09
2022-07-29T03:14:28.068Z,98561.64
2022-07-29T03:19:32.830Z,98562.05
2022-07-29T03:24:37.538Z,98561.62
2022-07-29T03:29:41.930Z,98558.73
2022-07-29T03:34:54.491Z,98552.43
2022-07-29T03:39:59.632Z,98546.90
2022-07-29T03:45:06.740Z,98558.20
2022-07-29T03:50:12.461Z,98556.11
2022-07-29T03:55:17.489Z,98552.18
2022-07-29T04:00:21.960Z,98540.23
2022-07-29T04:05:26.073Z,98539.98
2022-07-29T04:10:31.994Z,98544.19
2022-07-29T04:15:38.530Z,98547.23
2022-07-29T04:20:42.870Z,98550.35
2022-07-29T04:25:47.114Z,98549.73
2022-07-29T04:30:51.384Z,98551.16
2022-07-29T04:35:55.270Z,98550.98
2022-07-29T04:40:59.972Z,98554.42
2022-07-29T04:46:04.690Z,98547.83
2022-07-29T04:51:08.984Z,98540.64
2022-07-29T04:56:13.429Z,98536.48
2022-07-29T05:01:17.878Z,98539.73
2022-07-29T05:06:22.125Z,98543.00
2022-07-29T05:11:30.277Z,98535.34
2022-07-29T05:16:34.743Z,98530.52
2022-07-29T05:21:39.097Z,98535.55
2022-07-29T05:26:43.423Z,98539.89
2022-07-29T05:31:47.862Z,98539.34
2022-07-29T05:36:52.593Z,98541.20
2022-07-29T05:41:56.822Z,98545.37
2022-07-29T05:47:00.972Z,98541.05
2022-07-29T05:52:05.533Z,98540.80
2022-07-29T05:57:09.793Z,98532.50
2022-07-29T06:02:13.866Z,98525.88
2022-07-29T06:07:18.311Z,98527.09
2022-07-29T06:12:22.571Z,98524.33
2022-07-29T06:17:26.773Z,98523.59
2022-07-29T06:22:31.274Z,98531.41
2022-07-29T06:27:35.462Z,98528.01
2022-07-29T06:32:43.012Z,98534.35
2022-07-29T06:37:47.591Z,98534.76
2022-07-29T06:42:53.051Z,98537.90
2022-07-29T06:47:58.102Z,98545.45
2022-07-29T06:53:02.334Z,98547.22
2022-07-29T06:58:07.742Z,98548.78
2022-07-29T07:03:11.932Z,98546.80
2022-07-29T07:08:17.232Z,98542.50
2022-07-29T07:13:21.354Z,98539.63
2022-07-29T07:18:25.553Z,98538.63
2022-07-29T07:23:29.268Z,98534.25
2022-07-29T07:28:33.592Z,98528.67
2022-07-29T07:33:37.932Z,98535.66
2022-07-29T07:38:42.280Z,98538.65
2022-07-29T07:43:46.613Z,98541.39
2022-07-29T07:48:51.166Z,98536.39
2022-07-29T07:53:55.584Z,98527.91
2022-07-29T07:59:01.704Z,98528.31
2022-07-29T08:04:06.795Z,98526.86
2022-07-29T08:09:28.191Z,98527.48
2022-07-29T08:14:33.331Z,98523.20
2022-07-29T08:19:38.262Z,98528.00
2022-07-29T08:24:44.970Z,98532.05
2022-07-29T08:29:49.658Z,98529.73
2022-07-29T08:34:53.969Z,98528.41
2022-07-29T08:39:58.212Z,98525.75
2022-07-29T08:45:02.670Z,98525.27
2022-07-29T08:50:08.018Z,98526.14
2022-07-29T08:55:12.325Z,98522.08
2022-07-29T09:00:18.002Z,98531.80
2022-07-29T09:05:22.491Z,98531.36
2022-07-29T09:10:26.882Z,98530.95
2022-07-29T09:15:31.202Z,98534.33
2022-07-29T09:20:49.622Z,98526.92
2022-07-29T09:25:54.033Z,98525.40
2022-07-29T09:30:59.774Z,98516.42
2022-07-29T09:36:05.851Z,98502.70
2022-07-29T09:41:11.320Z,98507.56
2022-07-29T09:46:16.079Z,98502.98
2022-07-29T09:51:23.039Z,98501.66
2022-07-29T09:56:45.364Z,98491.83
2022-07-29T10:01:50.102Z,98486.78
2022-07-29T10:07:04.652Z,98489.39
2022-07-29T10:12:10.306Z,98492.94
2022-07-29T10:17:14.492Z,98482.48
2022-07-29T10:22:43.361Z,98477.56
2022-07-29T10:27:43.350Z,98477.52
2022-07-29T10:32:55.991Z,98472.02
2022-07-29T10:38:12.445Z,98468.17
2022-07-29T10:43:23.253Z,98468.64
2022-07-29T10:48:29.565Z,98468.77
2022-07-29T10:53:49.886Z,98466.94
2022-07-29T10:59:32.398Z,98463.29
2022-07-29T11:04:58.320Z,98460.93
2022-07-29T11:10:20.203Z,98456.64
2022-07-29T11:15:25.209Z,98456.20
2022-07-29T11:20:40.324Z,98460.21
2022-07-29T11:31:10.833Z,98446.36
2022-07-29T11:36:16.578Z,98454.47
2022-07-29T11:41:25.921Z,98453.67
2022-07-29T11:46:49.877Z,98452.39
2022-07-29T11:51:54.834Z,98448.88
2022-07-29T11:57:00.295Z,98444.95
2022-07-29T12:02:36.525Z,98443.17
2022-07-29T12:07:34.985Z,98434.47
2022-07-29T12:12:40.035Z,98433.73
2022-07-29T12:17:44.064Z,98436.32
2022-07-29T12:22:50.032Z,98438.41
2022-07-29T12:28:01.007Z,98445.74
2022-07-29T12:33:11.915Z,98444.42
2022-07-29T12:38:17.243Z,98450.00
2022-07-29T12:43:22.099Z,98441.10
2022-07-29T12:48:36.324Z,98440.70
2022-07-29T12:53:40.764Z,98442.85
2022-07-29T12:58:47.034Z,98438.35
2022-07-29T13:03:57.332Z,98431.48
2022-07-29T13:09:02.354Z,98426.98
2022-07-29T13:14:07.340Z,98423.16
2022-07-29T13:19:12.543Z,98425.64
2022-07-29T13:24:19.799Z,98420.70
2022-07-29T13:29:26.551Z,98412.59
2022-07-29T13:34:32.604Z,98404.75
2022-07-29T13:39:37.959Z,98392.64
2022-07-29T13:44:42.503Z,98381.33
2022-07-29T13:49:46.744Z,98372.41
2022-07-29T13:54:51.481Z,98362.60
2022-07-29T13:59:55.653Z,98356.74
2022-07-29T14:05:02.768Z,98354.66
2022-07-29T14:10:09.985Z,98349.23
2022-07-29T14:15:14.205Z,98337.37
2022-07-29T14:20:18.654Z,98333.72
2022-07-29T14:25:23.618Z,98326.96
2022-07-29T14:30:29.506Z,98326.95
2022-07-29T14:35:34.051Z,98324.86
2022-07-29T14:40:38.684Z,98327.33
2022-07-29T14:45:43.238Z,98325.12
2022-07-29T14:50:48.283Z,98318.85
2022-07-29T14:55:52.685Z,98311.92
2022-07-29T15:00:57.201Z,98310.02
2022-07-29T15:06:01.283Z,98309.38
2022-07-29T15:11:05.122Z,98309.47
2022-07-29T15:16:10.124Z,98310.08
2022-07-29T15:21:16.214Z,98316.92
2022-07-29T15:26:20.674Z,98321.91
2022-07-29T15:31:25.396Z,98331.25
2022-07-29T15:36:50.672Z,98332.63
2022-07-29T15:41:54.145Z,98325.74
2022-07-29T15:47:03.770Z,98329.78
2022-07-29T15:52:08.812Z,98331.75
2022-07-29T15:57:13.013Z,98331.04
2022-07-29T16:02:17.559Z,98332.66
2022-07-29T16:07:22.075Z,98332.20
2022-07-29T16:12:27.234Z,98329.80
2022-07-29T16:17:31.544Z,98332.14
2022-07-29T16:22:35.792Z,98325.76
2022-07-29T16:27:40.026Z,98326.91
2022-07-29T16:32:44.163Z,98326.96
2022-07-29T16:37:48.596Z,98325.84
2022-07-29T16:42:53.033Z,98326.67
2022-07-29T16:48:00.339Z,98327.84
2022-07-29T16:53:05.812Z,98327.93
2022-07-29T16:58:10.446Z,98330.94
2022-07-29T17:03:14.574Z,98359.20
2022-07-29T17:08:19.021Z,98378.83
2022-07-29T17:13:23.133Z,98395.08
2022-07-29T17:18:27.165Z,98401.93
2022-07-29T17:23:31.085Z,98408.54
2022-07-29T17:28:35.314Z,98409.13
2022-07-29T17:33:39.794Z,98400.19
2022-07-29T17:38:44.303Z,98405.64
2022-07-29T17:43:48.675Z,98403.65
2022-07-29T17:48:52.882Z,98397.27
2022-07-29T17:53:57.884Z,98396.27
2022-07-29T17:59:06.489Z,98396.30
2022-07-29T18:04:11.113Z,98390.84
2022-07-29T18:09:15.647Z,98384.02
2022-07-29T18:14:20.063Z,98377.92
2022-07-29T18:19:24.155Z,98387.80
2022-07-29T18:24:29.005Z,98385.34
2022-07-29T18:29:33.873Z,98375.19
2022-07-29T18:34:38.223Z,98361.77
2022-07-29T18:39:42.266Z,98364.13
2022-07-29T18:44:49.178Z,98363.91
2022-07-29T18:49:53.583Z,98363.14
2022-07-29T18:54:57.914Z,98374.33
2022-07-29T19:00:02.571Z,98370.13
2022-07-29T19:05:08.203Z,98370.02
2022-07-29T19:10:13.272Z,98374.66
2022-07-29T19:15:20.356Z,98381.46
2022-07-29T19:20:24.687Z,98386.48
2022-07-29T19:25:28.744Z,98395.55
2022-07-29T19:30:34.227Z,98388.70
2022-07-29T19:35:38.539Z,98379.45
2022-07-29T19:40:42.766Z,98384.96
2022-07-29T19:45:47.262Z,98403.27
2022-07-29T19:50:51.783Z,98412.60
2022-07-29T19:55:55.684Z,98406.84
2022-07-29T20:00:59.732Z,98406.77
2022-07-29T20:06:03.940Z,98412.17
2022-07-29T20:11:07.859Z,98417.05
2022-07-29T20:16:12.391Z,98417.59
2022-07-29T20:21:16.726Z,98412.67
2022-07-29T20:26:21.075Z,98396.58
2022-07-29T20:31:25.507Z,98380.16
2022-07-29T20:36:29.643Z,98369.95
2022-07-29T20:41:34.182Z,98371.58
2022-07-29T20:46:39.563Z,98366.56
2022-07-29T20:51:44.250Z,98366.16
2022-07-29T20:56:48.665Z,98358.96
2022-07-29T21:01:54.876Z,98354.79
2022-07-29T21:06:59.137Z,98345.45
2022-07-29T21:12:04.191Z,98337.55
2022-07-29T21:17:08.343Z,98334.27
2022-07-29T21:22:12.845Z,98335.30
2022-07-29T21:27:34.696Z,98325.45
2022-07-29T21:32:38.969Z,98315.71
2022-07-29T21:37:43.255Z,98306.48
2022-07-29T21:42:47.285Z,98304.09
2022-07-29T21:47:51.424Z,98310.87
2022-07-29T21:52:55.783Z,98321.08
2022-07-29T21:57:59.991Z,98322.76
2022-07-29T22:03:05.584Z,98323.31
2022-07-29T22:08:09.791Z,98324.41
2022-07-29T22:13:14.123Z,98316.10
2022-07-29T22:18:20.960Z,98309.92
2022-07-29T22:23:25.688Z,98316.50
2022-07-29T22:28:30.286Z,98315.17
2022-07-29T22:33:34.544Z,98312.50
2022-07-29T22:38:38.653Z,98305.83
2022-07-29T22:43:43.243Z,98293.69
2022-07-29T22:48:47.467Z,98290.38
2022-07-29T22:53:51.763Z,98292.05
2022-07-29T22:58:55.891Z,98283.89
2022-07-29T23:04:00.096Z,98279.38
2022-07-29T23:09:04.542Z,98279.39
2022-07-29T23:14:09.478Z,98270.48
2022-07-29T23:19:14.253Z,98267.41
2022-07-29T23:24:18.275Z,98259.77
2022-07-29T23:29:22.612Z,98244.70
2022-07-29T23:34:27.153Z,98236.20
2022-07-29T23:39:31.283Z,98225.08
2022-07-29T23:44:35.524Z,98212.64
2022-07-29T23:49:39.953Z,98210.70
2022-07-29T23:54:43.866Z,98209.68
2022-07-29T23:59:48.213Z,98201.48
